createdAt,value
2023-01-05T00:04:55.993Z,1011.61
2023-01-05T00:11:18.995Z,1011.61
2023-01-05T00:17:39.054Z,1011.59
2023-01-05T00:24:02.004Z,1011.63
2023-01-05T00:30:22.036Z,1011.65
2023-01-05T00:36:45.004Z,1011.71
2023-01-05T00:43:05.039Z,1011.83
2023-01-05T00:49:28.022Z,1011.81
2023-01-05T00:55:48.014Z,1011.85
2023-01-05T01:02:11.078Z,1011.83
2023-01-05T01:08:31.031Z,1011.81
2023-01-05T01:14:54.001Z,1011.75
2023-01-05T01:21:13.974Z,1011.79
2023-01-05T01:27:38.105Z,1011.85
2023-01-05T01:33:58.052Z,1011.87
2023-01-05T01:40:20.971Z,1011.91
2023-01-05T01:46:40.978Z,1011.95
2023-01-05T01:53:04.004Z,1011.96
2023-01-05T01:59:24.025Z,1011.98
2023-01-05T02:05:46.999Z,1011.98
2023-01-05T02:12:07.014Z,1012
2023-01-05T02:18:29.980Z,1011.95
2023-01-05T02:24:50.012Z,1011.95
2023-01-05T02:31:13.129Z,1011.95
2023-01-05T02:37:32.984Z,1011.91
2023-01-05T02:43:55.995Z,1011.96
2023-01-05T02:50:16.037Z,1012.02
2023-01-05T02:56:39.018Z,1012.08
2023-01-05T03:02:59.206Z,1012.18
2023-01-05T03:09:22.040Z,1012.22
2023-01-05T03:15:42.006Z,1012.28
2023-01-05T03:22:04.987Z,1012.28
2023-01-05T03:28:24.992Z,1012.28
2023-01-05T03:34:47.991Z,1012.28
2023-01-05T03:41:07.996Z,1012.3
2023-01-05T03:47:31.008Z,1012.3
2023-01-05T03:53:51.022Z,1012.3
2023-01-05T04:00:14.050Z,1012.28
2023-01-05T04:06:34.042Z,1012.3
2023-01-05T04:29:58.988Z,1012.43
2023-01-05T04:36:21.984Z,1012.47
2023-01-05T04:42:41.979Z,1012.49
2023-01-05T04:49:05.015Z,1012.51
2023-01-05T04:55:25.002Z,1012.47
2023-01-05T05:01:48.202Z,1012.42
2023-01-05T05:08:08.047Z,1012.36
2023-01-05T05:14:31.008Z,1012.38
2023-01-05T05:20:50.996Z,1012.43
2023-01-05T05:27:14.030Z,1012.47
2023-01-05T05:33:34.004Z,1012.47
2023-01-05T05:39:57.007Z,1012.51
2023-01-05T05:46:17.060Z,1012.59
2023-01-05T05:52:39.975Z,1012.67
2023-01-05T05:59:01.718Z,1012.77
2023-01-05T06:05:23.003Z,1012.85
2023-01-05T06:11:42.987Z,1012.89
2023-01-05T06:18:06.005Z,1012.96
2023-01-05T06:24:26.107Z,1012.98
2023-01-05T06:30:49.020Z,1013.08
2023-01-05T06:37:09.015Z,1013.1
2023-01-05T06:43:32.017Z,1013.21
2023-01-05T06:49:51.985Z,1013.25
2023-01-05T06:56:14.992Z,1013.28
2023-01-05T07:02:35.026Z,1013.38
2023-01-05T07:08:57.998Z,1013.46
2023-01-05T07:15:17.991Z,1013.54
2023-01-05T07:21:41.037Z,1013.62
2023-01-05T07:28:01.022Z,1013.66
2023-01-05T07:34:24.019Z,1013.77
2023-01-05T07:40:44.006Z,1013.81
2023-01-05T07:47:06.993Z,1013.91
2023-01-05T07:53:27.025Z,1013.97
2023-01-05T07:59:50.030Z,1014.01
2023-01-05T08:06:10.010Z,1014.09
2023-01-05T08:12:32.989Z,1014.19
2023-01-05T08:18:53.041Z,1014.3
2023-01-05T08:25:16.005Z,1014.4
2023-01-05T08:31:36.013Z,1014.4
2023-01-05T08:37:59.045Z,1014.42
2023-01-05T08:44:18.996Z,1014.44
2023-01-05T08:50:42.003Z,1014.52
2023-01-05T08:57:02.189Z,1014.54
2023-01-05T09:03:25.233Z,1014.56
2023-01-05T09:09:45.041Z,1014.64
2023-01-05T09:16:08.014Z,1014.71
2023-01-05T09:22:27.981Z,1014.73
2023-01-05T09:28:50.994Z,1014.79
2023-01-05T09:51:57.112Z,1015.13
2023-01-05T09:58:16.987Z,1015.2
2023-01-05T10:04:40.047Z,1015.28
2023-01-05T10:11:00.121Z,1015.36
2023-01-05T10:17:40.871Z,1015.36
2023-01-05T10:23:44.032Z,1015.42
2023-01-05T10:30:07.111Z,1015.44
2023-01-05T10:36:57.946Z,1015.48
2023-01-05T10:42:49.983Z,1015.54
2023-01-05T10:49:10.143Z,1015.54
2023-01-05T10:55:33.061Z,1015.56
2023-01-05T11:01:53.197Z,1015.62
2023-01-05T11:08:16.143Z,1015.62
2023-01-05T11:14:35.996Z,1015.58
2023-01-05T11:20:59.048Z,1015.58
2023-01-05T11:27:19.137Z,1015.58
2023-01-05T11:33:42.007Z,1015.63
2023-01-05T11:40:02.021Z,1015.63
2023-01-05T11:46:25.159Z,1015.63
2023-01-05T11:52:45.011Z,1015.62
2023-01-05T11:59:07.986Z,1015.63
2023-01-05T12:05:28.390Z,1015.62
2023-01-05T12:11:50.993Z,1015.62
2023-01-05T12:18:10.995Z,1015.6
2023-01-05T12:24:34.117Z,1015.62
2023-01-05T12:37:17.027Z,1015.67
2023-01-05T12:43:37.118Z,1015.67
2023-01-05T12:50:00.040Z,1015.67
2023-01-05T12:56:19.978Z,1015.67
2023-01-05T13:02:43.235Z,1015.65
2023-01-05T13:09:02.994Z,1015.67
2023-01-05T13:15:25.987Z,1015.67
2023-01-05T13:21:46.139Z,1015.63
2023-01-05T13:28:08.992Z,1015.65
2023-01-05T13:34:28.994Z,1015.65
2023-01-05T13:40:52.117Z,1015.69
2023-01-05T13:47:12.008Z,1015.8
2023-01-05T13:53:35.002Z,1015.84
2023-01-05T14:00:00.878Z,1015.84
2023-01-05T14:06:17.988Z,1015.82
2023-01-05T14:12:38.061Z,1015.82
2023-01-05T14:19:01.105Z,1015.86
2023-01-05T14:25:21.002Z,1015.9
2023-01-05T14:31:44.040Z,1015.92
2023-01-05T14:38:04.096Z,1015.94
2023-01-05T14:44:27.015Z,1015.98
2023-01-05T15:07:13.095Z,1016.07
2023-01-05T15:13:39.078Z,1016.13
2023-01-05T15:19:58.974Z,1016.17
2023-01-05T15:26:22.160Z,1016.17
2023-01-05T15:32:42.148Z,1016.09
2023-01-05T15:39:04.991Z,1016.09
2023-01-05T15:45:25.115Z,1016.05
2023-01-05T15:51:47.977Z,1016.09
2023-01-05T15:58:09.023Z,1016.09
2023-01-05T16:04:31.229Z,1016.07
2023-01-05T16:10:50.989Z,1016.11
2023-01-05T16:17:14.067Z,1016.09
2023-01-05T16:23:34.092Z,1016.17
2023-01-05T16:29:57.079Z,1016.19
2023-01-05T16:36:16.985Z,1016.23
2023-01-05T16:42:40.307Z,1016.27
2023-01-05T16:49:00.038Z,1016.23
2023-01-05T16:55:27.303Z,1016.17
2023-01-05T17:01:43.123Z,1016.13
2023-01-05T17:08:05.977Z,1016.13
2023-01-05T17:14:26.145Z,1016.17
2023-01-05T17:20:49.116Z,1016.17
2023-01-05T17:27:08.979Z,1016.15
2023-01-05T17:33:32.053Z,1016.09
2023-01-05T17:39:52.105Z,1016.05
2023-01-05T17:46:15.052Z,1016
2023-01-05T17:52:34.988Z,1016
2023-01-05T17:58:58.354Z,1015.92
2023-01-05T18:05:18.026Z,1015.84
2023-01-05T18:11:41.023Z,1015.84
2023-01-05T18:18:01.104Z,1015.78
2023-01-05T18:24:23.992Z,1015.8
2023-01-05T18:30:44.044Z,1015.69
2023-01-05T18:37:15.638Z,1015.6
2023-01-05T18:43:26.984Z,1015.58
2023-01-05T18:49:50.008Z,1015.54
2023-01-05T18:56:10.140Z,1015.54
2023-01-05T19:02:32.995Z,1015.5
2023-01-05T19:08:53.020Z,1015.46
2023-01-05T19:15:16.119Z,1015.46
2023-01-05T19:21:36.005Z,1015.48
2023-01-05T19:28:00.530Z,1015.46
2023-01-05T19:34:19.579Z,1015.5
2023-01-05T19:40:42.091Z,1015.42
2023-01-05T19:47:02.003Z,1015.44
2023-01-05T19:53:25.105Z,1015.42
2023-01-05T19:59:44.996Z,1015.4
2023-01-05T20:23:10.125Z,1015.34
2023-01-05T20:29:32.995Z,1015.38
2023-01-05T20:35:52.979Z,1015.4
2023-01-05T20:42:16.104Z,1015.36
2023-01-05T20:48:35.988Z,1015.32
2023-01-05T20:54:58.986Z,1015.32
2023-01-05T21:01:19.127Z,1015.28
2023-01-05T21:07:42.005Z,1015.28
2023-01-05T21:14:01.980Z,1015.28
2023-01-05T21:20:25.166Z,1015.24
2023-01-05T21:26:44.986Z,1015.2
2023-01-05T21:33:07.986Z,1015.2
2023-01-05T21:39:28.117Z,1015.13
2023-01-05T21:45:51.048Z,1015.07
2023-01-05T21:52:11.012Z,1015.03
2023-01-05T21:58:34.108Z,1014.99
2023-01-05T22:04:53.974Z,1014.97
2023-01-05T22:11:16.989Z,1014.95
2023-01-05T22:17:37.113Z,1014.93
2023-01-05T22:23:59.998Z,1014.87
2023-01-05T22:30:19.980Z,1014.83
2023-01-05T22:36:43.111Z,1014.85
2023-01-05T22:43:02.971Z,1014.85
2023-01-05T22:49:25.978Z,1014.85
2023-01-05T22:55:46.098Z,1014.87
2023-01-05T23:20:03.124Z,1014.79
2023-01-05T23:26:22.970Z,1014.77
2023-01-05T23:32:46.003Z,1014.71
2023-01-05T23:39:06.100Z,1014.66
2023-01-05T23:45:29.002Z,1014.54
2023-01-05T23:51:48.975Z,1014.52
2023-01-05T23:58:12.091Z,1014.46
